Time;durP1;ratioP1;P1;durP2;ratioP2;P2;SDS_P1;SDS_P2;PMS_P1;PMS_P2;Temp;Humidity;BMP_temperature;BMP_pressure;BME280_temperature;BME280_humidity;BME280_pressure;Samples;Min_cycle;Max_cycle;Signal;HPM_P1;HPM_P2
2022/06/21 00:01:00;;;;;;;4.55;2.95;;;;;;;11.65;100.00;100621.06;6119078;29;20054;-91
2022/06/21 00:04:01;;;;;;;8.13;3.13;;;;;;;11.69;100.00;100617.28;6118459;29;20051;-91
2022/06/21 00:07:06;;;;;;;5.00;3.00;;;;;;;11.71;100.00;100622.34;6116345;29;20704;-91
2022/06/21 00:10:15;;;;;;;6.50;3.00;;;;;;;11.62;100.00;100629.09;6117921;29;20052;-91
2022/06/21 00:13:27;;;;;;;7.88;3.05;;;;;;;11.61;100.00;100635.25;6117112;29;20054;-91
2022/06/21 00:16:30;;;;;;;7.28;3.40;;;;;;;11.55;100.00;100633.13;6124496;29;20089;-91
2022/06/21 00:19:32;;;;;;;5.07;3.28;;;;;;;11.50;100.00;100630.09;6120110;29;20047;-91
2022/06/21 00:22:34;;;;;;;5.20;3.10;;;;;;;11.46;100.00;100631.31;6121322;29;20051;-92
2022/06/21 00:25:36;;;;;;;6.55;2.88;;;;;;;11.39;100.00;100636.97;6118905;28;20869;-91
2022/06/21 00:28:39;;;;;;;7.00;2.80;;;;;;;11.39;100.00;100631.78;6116168;29;20493;-91
2022/06/21 00:31:48;;;;;;;7.70;3.17;;;;;;;11.36;100.00;100626.84;6115565;29;20438;-91
2022/06/21 00:34:50;;;;;;;6.47;3.25;;;;;;;11.35;100.00;100624.38;6116163;29;20052;-92
2022/06/21 00:37:53;;;;;;;6.75;3.10;;;;;;;11.32;100.00;100619.44;6101235;29;20047;-91
2022/06/21 00:40:58;;;;;;;7.07;2.95;;;;;;;11.27;100.00;100626.78;6107066;29;20130;-92
2022/06/21 00:44:04;;;;;;;10.68;3.15;;;;;;;11.23;100.00;100622.78;6117961;29;20044;-91
2022/06/21 00:47:15;;;;;;;6.28;2.70;;;;;;;11.23;100.00;100634.00;6115794;29;20079;-91
2022/06/21 00:50:17;;;;;;;5.45;3.13;;;;;;;11.18;100.00;100629.16;6117202;29;20514;-92
2022/06/21 00:53:24;;;;;;;4.88;2.80;;;;;;;11.17;100.00;100616.31;6121742;29;20036;-91
2022/06/21 00:56:32;;;;;;;6.70;3.20;;;;;;;11.05;100.00;100612.13;6113767;29;20115;-91
2022/06/21 00:59:34;;;;;;;7.90;3.33;;;;;;;11.04;100.00;100610.50;6113842;29;20086;-91
2022/06/21 01:02:36;;;;;;;9.38;3.03;;;;;;;10.98;100.00;100612.63;6108829;29;20732;-91
2022/06/21 01:05:42;;;;;;;6.68;2.90;;;;;;;10.97;100.00;100610.97;6117904;29;20565;-91
2022/06/21 01:08:49;;;;;;;3.75;2.53;;;;;;;10.98;100.00;100602.25;6105957;29;20675;-91
2022/06/21 01:12:06;;;;;;;6.28;2.65;;;;;;;10.95;100.00;100606.84;6100596;29;20430;-92
2022/06/21 01:15:24;;;;;;;5.88;2.78;;;;;;;10.86;100.00;100608.41;6109517;29;20123;-91
2022/06/21 01:18:27;;;;;;;4.68;2.60;;;;;;;10.88;100.00;100600.50;6112590;29;20050;-91
2022/06/21 01:21:30;;;;;;;4.97;2.65;;;;;;;10.83;100.00;100605.22;6114713;29;20655;-92
2022/06/21 01:24:45;;;;;;;4.10;2.92;;;;;;;10.77;100.00;100609.13;6109198;29;20058;-91
2022/06/21 01:27:48;;;;;;;8.23;3.20;;;;;;;10.73;100.00;100612.88;6119540;29;20047;-92
2022/06/21 01:30:54;;;;;;;4.18;2.80;;;;;;;10.72;100.00;100619.84;6099981;29;20088;-92
2022/06/21 01:33:56;;;;;;;5.78;2.58;;;;;;;10.65;100.00;100610.09;6116753;29;20048;-93
2022/06/21 01:37:09;;;;;;;7.28;3.03;;;;;;;10.63;100.00;100601.59;6107545;29;20047;-92
2022/06/21 01:40:27;;;;;;;10.88;3.10;;;;;;;10.60;100.00;100604.44;6119218;29;20048;-91
2022/06/21 01:43:32;;;;;;;5.25;2.83;;;;;;;10.59;100.00;100607.97;6125975;29;20047;-92
2022/06/21 01:46:34;;;;;;;5.70;2.53;;;;;;;10.52;100.00;100605.03;6116352;29;20043;-92
2022/06/21 01:49:44;;;;;;;5.30;2.58;;;;;;;10.51;100.00;100606.81;6120560;29;20055;-92
2022/06/21 01:52:49;;;;;;;4.35;2.60;;;;;;;10.51;100.00;100619.75;6115431;29;20047;-92
2022/06/21 01:55:57;;;;;;;7.88;3.03;;;;;;;10.43;100.00;100623.84;6130917;28;20048;-92
2022/06/21 01:59:17;;;;;;;6.88;2.65;;;;;;;10.41;100.00;100613.63;6117593;29;20476;-92
2022/06/21 02:02:23;;;;;;;6.15;2.83;;;;;;;10.42;100.00;100623.03;6121370;29;20405;-92
2022/06/21 02:05:34;;;;;;;7.38;2.80;;;;;;;10.38;100.00;100621.63;6112817;29;20509;-92
2022/06/21 02:08:57;;;;;;;6.07;2.78;;;;;;;10.34;100.00;100626.22;6100897;29;20048;-92
2022/06/21 02:12:06;;;;;;;5.88;2.58;;;;;;;10.27;100.00;100632.75;6100532;29;20039;-92
2022/06/21 02:15:20;;;;;;;4.43;2.47;;;;;;;10.20;100.00;100631.56;6115519;29;20639;-92
2022/06/21 02:18:24;;;;;;;4.55;2.42;;;;;;;10.16;100.00;100621.56;6119357;29;20122;-91
2022/06/21 02:21:34;;;;;;;5.90;2.50;;;;;;;10.11;100.00;100614.16;6110969;29;20048;-92
2022/06/21 02:24:37;;;;;;;6.03;2.60;;;;;;;10.08;100.00;100606.63;6128326;28;20058;-91
2022/06/21 02:27:39;;;;;;;6.13;2.47;;;;;;;10.13;100.00;100597.56;6109322;29;20414;-92
2022/06/21 02:30:43;;;;;;;5.40;2.80;;;;;;;10.18;100.00;100597.22;6122379;28;20043;-92
2022/06/21 02:33:47;;;;;;;4.88;2.60;;;;;;;10.24;100.00;100601.13;6112134;29;20508;-92
2022/06/21 02:36:55;;;;;;;7.30;3.15;;;;;;;10.27;100.00;100603.47;6106044;29;20572;-92
2022/06/21 02:40:00;;;;;;;7.38;3.22;;;;;;;10.32;100.00;100599.63;6115811;28;20047;-92
2022/06/21 02:43:17;;;;;;;4.68;2.60;;;;;;;10.32;100.00;100609.16;6109129;29;20823;-92
2022/06/21 02:46:26;;;;;;;4.22;2.42;;;;;;;10.23;100.00;100605.47;6112257;29;20039;-91
2022/06/21 02:49:36;;;;;;;7.60;2.80;;;;;;;10.14;100.00;100596.66;6095162;29;20541;-92
2022/06/21 02:52:41;;;;;;;5.55;3.05;;;;;;;10.09;100.00;100608.31;6107482;29;20040;-92
2022/06/21 02:56:04;;;;;;;9.73;2.97;;;;;;;10.14;100.00;100612.19;6106415;29;20557;-92
2022/06/21 02:59:09;;;;;;;10.18;3.80;;;;;;;10.16;100.00;100613.81;6106887;29;20050;-92
2022/06/21 03:02:14;;;;;;;5.70;2.95;;;;;;;10.20;100.00;100612.66;6129343;28;20882;-92
2022/06/21 03:05:25;;;;;;;8.48;4.25;;;;;;;10.19;100.00;100616.19;6113350;29;20050;-92
2022/06/21 03:08:30;;;;;;;5.47;2.50;;;;;;;10.12;100.00;100614.06;6117749;29;20055;-92
2022/06/21 03:11:36;;;;;;;7.25;2.58;;;;;;;10.07;100.00;100600.66;6117982;29;20317;-93
2022/06/21 03:14:38;;;;;;;8.65;2.58;;;;;;;9.99;100.00;100602.19;6101981;29;20117;-92
2022/06/21 03:18:01;;;;;;;6.60;2.97;;;;;;;9.98;100.00;100598.75;6110822;28;20051;-92
2022/06/21 03:21:05;;;;;;;7.72;2.90;;;;;;;10.02;100.00;100602.75;6104165;29;20118;-92
2022/06/21 03:24:14;;;;;;;2.55;2.30;;;;;;;10.05;100.00;100601.69;6106555;29;20052;-92
2022/06/21 03:28:07;;;;;;;8.32;2.70;;;;;;;10.01;100.00;100597.69;6105765;29;20032;-92
2022/06/21 03:31:26;;;;;;;5.35;2.90;;;;;;;9.98;100.00;100601.34;6083004;29;20075;-92
2022/06/21 03:34:28;;;;;;;12.10;3.15;;;;;;;9.95;100.00;100595.56;6059003;29;20103;-93
2022/06/21 03:37:30;;;;;;;7.35;2.88;;;;;;;9.93;100.00;100603.44;6082655;29;20072;-93
2022/06/21 03:43:59;;;;;;;7.47;2.85;;;;;;;9.93;100.00;100600.84;6082290;29;20032;-93
2022/06/21 03:47:09;;;;;;;5.78;2.50;;;;;;;9.94;100.00;100607.69;6085158;29;20111;-93
2022/06/21 03:50:22;;;;;;;7.17;2.97;;;;;;;9.96;100.00;100610.97;6069545;29;20048;-92
2022/06/21 03:53:31;;;;;;;3.67;2.33;;;;;;;9.98;100.00;100613.44;6079800;29;20056;-93
2022/06/21 03:56:52;;;;;;;5.40;2.50;;;;;;;9.99;100.00;100609.94;6065377;29;20597;-92
2022/06/21 04:00:01;;;;;;;6.72;2.50;;;;;;;9.99;100.00;100610.75;6085177;29;20477;-93
2022/06/21 04:03:30;;;;;;;4.40;2.40;;;;;;;10.01;100.00;100619.22;6082175;29;20040;-93
2022/06/21 04:06:54;;;;;;;5.45;2.78;;;;;;;10.00;100.00;100617.56;6100645;29;20195;-94
2022/06/21 04:10:28;;;;;;;6.43;2.72;;;;;;;10.07;100.00;100617.94;6114093;29;20052;-93
2022/06/21 04:13:47;;;;;;;8.65;3.15;;;;;;;10.16;100.00;100613.81;6111716;29;20044;-93
2022/06/21 04:17:43;;;;;;;5.60;2.83;;;;;;;10.25;100.00;100623.47;6115643;29;20252;-92
2022/06/21 04:21:09;;;;;;;9.57;2.92;;;;;;;10.28;100.00;100616.31;6080846;29;20207;-93
2022/06/21 04:24:20;;;;;;;6.68;3.03;;;;;;;10.37;100.00;100604.47;6086354;29;20628;-93
2022/06/21 04:27:31;;;;;;;8.80;2.58;;;;;;;10.38;100.00;100598.31;6086203;29;20072;-93
2022/06/21 04:30:43;;;;;;;6.45;3.05;;;;;;;10.42;100.00;100591.97;6086272;29;20345;-93
2022/06/21 04:34:02;;;;;;;6.15;2.97;;;;;;;10.50;100.00;100596.56;6086424;29;20052;-91
2022/06/21 04:37:37;;;;;;;8.98;2.92;;;;;;;10.56;100.00;100604.69;6091536;29;20143;-94
2022/06/21 04:40:52;;;;;;;11.68;2.83;;;;;;;10.64;100.00;100605.84;6090847;29;20637;-93
2022/06/21 04:44:02;;;;;;;9.30;2.95;;;;;;;10.70;100.00;100605.38;6090989;29;20055;-93
2022/06/21 04:47:11;;;;;;;10.73;3.10;;;;;;;10.75;100.00;100613.59;6090990;29;20647;-93
2022/06/21 04:50:44;;;;;;;7.00;2.75;;;;;;;10.80;100.00;100616.66;6091044;29;20713;-94
2022/06/21 04:53:55;;;;;;;12.27;2.92;;;;;;;10.84;100.00;100618.06;6043817;29;20136;-94
2022/06/21 04:57:20;;;;;;;9.70;3.65;;;;;;;10.87;100.00;100624.75;6042798;29;20072;-94
2022/06/21 05:00:22;;;;;;;10.02;3.05;;;;;;;10.91;100.00;100634.75;6040885;29;21388;-94
2022/06/21 05:03:27;;;;;;;9.40;3.08;;;;;;;10.94;100.00;100631.09;6040007;29;20105;-94
2022/06/21 05:06:29;;;;;;;9.00;3.25;;;;;;;11.01;100.00;100639.22;6042658;29;20053;-94
2022/06/21 05:09:33;;;;;;;6.43;3.15;;;;;;;11.05;100.00;100638.84;6042105;29;20061;-95
2022/06/21 05:12:41;;;;;;;8.60;3.25;;;;;;;11.11;100.00;100653.09;6039254;29;20057;-96
2022/06/21 05:15:43;;;;;;;8.38;2.97;;;;;;;11.22;100.00;100650.47;6023127;29;20053;-95
2022/06/21 05:18:54;;;;;;;7.80;2.75;;;;;;;11.30;100.00;100642.88;6048530;29;20132;-95
2022/06/21 05:21:59;;;;;;;6.85;2.50;;;;;;;11.37;100.00;100638.88;6036547;29;20041;-95
2022/06/21 05:25:01;;;;;;;7.43;2.40;;;;;;;11.46;100.00;100650.28;6043793;29;20065;-95
2022/06/21 05:28:34;;;;;;;13.85;2.55;;;;;;;11.56;100.00;100653.75;6034513;29;20084;-94
2022/06/21 05:31:41;;;;;;;14.15;2.97;;;;;;;11.66;100.00;100646.06;6098563;29;20052;-94
2022/06/21 05:34:48;;;;;;;9.75;2.47;;;;;;;11.67;100.00;100639.91;6114764;28;20056;-96
2022/06/21 05:37:58;;;;;;;11.68;2.80;;;;;;;11.72;100.00;100636.94;6118453;28;20036;-95
2022/06/21 05:41:29;;;;;;;11.02;2.40;;;;;;;11.81;100.00;100636.19;6115959;28;20044;-94
2022/06/21 05:44:40;;;;;;;10.07;2.25;;;;;;;11.84;100.00;100647.13;6109175;29;20040;-94
2022/06/21 05:48:12;;;;;;;7.30;2.03;;;;;;;11.85;100.00;100650.56;6117955;29;20050;-94
2022/06/21 05:51:24;;;;;;;13.60;2.55;;;;;;;11.92;100.00;100654.31;6116860;29;20102;-95
2022/06/21 05:54:33;;;;;;;13.80;2.60;;;;;;;11.95;100.00;100664.47;6118559;29;20047;-93
2022/06/21 05:57:40;;;;;;;6.40;2.00;;;;;;;12.04;100.00;100673.22;6112334;29;20420;-95
2022/06/21 06:01:00;;;;;;;8.35;3.08;;;;;;;12.21;100.00;100667.47;6114772;29;20051;-95
2022/06/21 06:04:26;;;;;;;7.35;2.65;;;;;;;12.18;100.00;100672.09;6113524;29;20039;-93
2022/06/21 06:07:37;;;;;;;6.28;2.53;;;;;;;12.25;100.00;100675.84;6110698;29;20474;-95
2022/06/21 06:10:43;;;;;;;6.22;1.92;;;;;;;12.35;100.00;100666.31;6113798;29;20134;-94
2022/06/21 06:13:47;;;;;;;7.88;2.42;;;;;;;12.38;100.00;100673.84;6116849;29;20413;-93
2022/06/21 06:16:53;;;;;;;5.60;1.85;;;;;;;12.46;100.00;100679.19;6109853;29;20083;-94
2022/06/21 06:20:01;;;;;;;9.18;2.22;;;;;;;12.59;100.00;100680.75;6107857;29;20047;-93
2022/06/21 06:23:20;;;;;;;10.93;2.00;;;;;;;12.83;100.00;100689.06;6110336;29;20054;-92
2022/06/21 06:26:34;;;;;;;9.73;2.38;;;;;;;13.26;100.00;100697.50;6110186;29;20111;-94
2022/06/21 06:29:45;;;;;;;9.00;2.10;;;;;;;13.38;100.00;100696.47;6107795;29;20140;-95
2022/06/21 06:33:03;;;;;;;5.63;2.28;;;;;;;13.44;100.00;100697.69;6095992;29;20052;-94
2022/06/21 06:36:10;;;;;;;7.38;1.92;;;;;;;13.58;100.00;100692.09;6104421;29;20239;-94
2022/06/21 06:39:35;;;;;;;8.38;1.77;;;;;;;13.84;100.00;100697.59;6113644;29;20051;-94
2022/06/21 06:42:39;;;;;;;6.78;2.15;;;;;;;14.13;100.00;100700.13;6115554;29;20050;-93
2022/06/21 06:45:43;;;;;;;8.40;1.90;;;;;;;14.36;100.00;100699.78;6117291;29;20497;-93
2022/06/21 06:48:45;;;;;;;11.00;2.20;;;;;;;14.74;100.00;100696.28;6112525;29;20048;-94
2022/06/21 06:52:11;;;;;;;7.40;1.83;;;;;;;14.89;100.00;100703.63;6106161;29;20114;-93
2022/06/21 06:55:38;;;;;;;9.35;1.75;;;;;;;14.93;100.00;100707.56;6130166;28;20492;-93
2022/06/21 06:59:11;;;;;;;10.77;2.38;;;;;;;15.07;100.00;100700.06;6105069;29;20044;-93
2022/06/21 07:02:36;;;;;;;10.43;2.00;;;;;;;15.20;100.00;100702.34;6109717;29;20040;-93
2022/06/21 07:06:19;;;;;;;6.97;1.98;;;;;;;15.10;100.00;100712.00;6119991;28;20051;-94
2022/06/21 07:09:40;;;;;;;6.30;1.55;;;;;;;14.89;100.00;100714.88;6116889;29;20128;-92
2022/06/21 07:12:42;;;;;;;10.68;2.13;;;;;;;15.07;100.00;100705.28;6107856;29;20489;-93
2022/06/21 07:15:47;;;;;;;6.25;2.03;;;;;;;15.68;100.00;100706.41;6115972;29;20087;-93
2022/06/21 07:18:53;;;;;;;9.10;2.03;;;;;;;16.02;100.00;100708.31;6117980;29;20040;-92
2022/06/21 07:21:56;;;;;;;7.60;2.50;;;;;;;16.10;100.00;100718.84;6113786;29;20044;-92
2022/06/21 07:25:03;;;;;;;7.75;2.00;;;;;;;16.20;100.00;100715.28;6102611;29;20036;-91
2022/06/21 07:28:25;;;;;;;9.38;2.08;;;;;;;16.18;100.00;100709.41;6110909;29;20090;-93
2022/06/21 07:31:31;;;;;;;7.05;2.25;;;;;;;16.12;100.00;100718.66;6110000;29;20078;-91
2022/06/21 07:34:38;;;;;;;8.38;2.05;;;;;;;15.85;100.00;100717.84;6115466;29;20046;-92
2022/06/21 07:37:50;;;;;;;9.55;2.25;;;;;;;15.55;100.00;100711.16;6116152;29;20048;-92
2022/06/21 07:41:10;;;;;;;5.55;1.73;;;;;;;15.42;100.00;100702.88;6112279;29;20036;-92
2022/06/21 07:44:20;;;;;;;7.78;1.90;;;;;;;15.45;100.00;100702.59;6111951;29;20036;-92
2022/06/21 07:47:37;;;;;;;6.45;1.60;;;;;;;15.51;98.75;100715.84;6110178;29;20048;-91
2022/06/21 07:50:42;;;;;;;;;;;;;;;15.75;100.00;100709.28;6115008;29;20052;-92
2022/06/21 07:53:55;;;;;;;5.90;1.85;;;;;;;16.31;98.22;100707.22;6115953;29;19927;-91
2022/06/21 07:57:05;;;;;;;7.22;1.80;;;;;;;16.83;92.36;100711.59;6115588;29;20074;-92
2022/06/21 08:00:17;;;;;;;5.53;1.75;;;;;;;16.78;91.14;100712.06;6106899;29;20151;-93
2022/06/21 08:06:47;;;;;;;6.97;1.90;;;;;;;16.92;91.52;100701.00;6105713;29;20052;-91
2022/06/21 08:10:17;;;;;;;6.90;2.53;;;;;;;17.28;90.31;100715.66;6123084;29;20616;-93
2022/06/21 08:13:19;;;;;;;7.88;2.42;;;;;;;17.59;88.63;100721.94;6127390;28;20040;-92
2022/06/21 08:16:31;;;;;;;6.50;2.38;;;;;;;17.83;89.19;100723.75;6123583;29;20649;-92
2022/06/21 08:19:40;;;;;;;5.68;2.00;;;;;;;17.60;85.41;100713.09;6118548;29;20044;-92
2022/06/21 08:23:14;;;;;;;3.53;2.10;;;;;;;17.32;86.49;100703.91;6117882;29;20142;-92
2022/06/21 08:26:24;;;;;;;5.10;2.30;;;;;;;17.10;90.24;100706.13;6119846;29;20043;-92
2022/06/21 08:29:32;;;;;;;7.05;1.85;;;;;;;16.83;89.49;100696.72;6121117;29;20180;-90
2022/06/21 08:32:40;;;;;;;6.97;2.28;;;;;;;16.68;93.68;100693.03;6120090;28;20859;-91
2022/06/21 08:35:56;;;;;;;6.45;2.40;;;;;;;16.65;96.69;100698.59;6124947;29;20044;-92
2022/06/21 08:39:09;;;;;;;4.47;1.85;;;;;;;16.69;93.13;100699.88;6115597;29;20409;-91
2022/06/21 08:42:40;;;;;;;6.28;2.05;;;;;;;16.95;91.82;100700.69;6119454;29;20044;-93
2022/06/21 08:46:11;;;;;;;5.88;1.60;;;;;;;17.00;91.13;100687.94;6119474;29;20051;-91
2022/06/21 08:49:35;;;;;;;6.82;2.00;;;;;;;16.85;89.61;100696.56;6120473;29;20040;-91
2022/06/21 08:52:55;;;;;;;5.57;1.75;;;;;;;16.74;91.47;100684.56;6117239;29;20047;-91
2022/06/21 08:56:03;;;;;;;7.75;2.25;;;;;;;16.81;92.61;100687.41;6119332;29;20040;-91
2022/06/21 08:59:56;;;;;;;5.50;1.75;;;;;;;17.00;92.71;100687.94;6122113;29;20490;-91
2022/06/21 09:02:58;;;;;;;5.65;1.80;;;;;;;17.21;89.83;100679.66;6078402;29;20052;-91
2022/06/21 09:06:19;;;;;;;6.53;2.00;;;;;;;17.21;88.04;100686.69;6090388;29;20056;-91
2022/06/21 09:09:39;;;;;;;;;;;;;;;17.11;89.16;100678.16;6088397;29;20048;-90
2022/06/21 09:13:09;;;;;;;5.18;1.90;;;;;;;16.85;91.20;100668.63;6091846;29;19934;-91
2022/06/21 09:16:39;;;;;;;3.67;1.30;;;;;;;16.98;91.05;100666.38;6091173;29;20253;-92
2022/06/21 09:19:59;;;;;;;5.32;1.80;;;;;;;17.11;88.47;100667.69;6092268;29;20296;-91
2022/06/21 09:23:29;;;;;;;6.25;1.75;;;;;;;17.11;90.00;100671.13;6093645;29;20052;-91
2022/06/21 09:26:33;;;;;;;5.68;2.13;;;;;;;17.09;90.05;100672.28;6090090;29;20491;-92
2022/06/21 09:29:56;;;;;;;3.92;1.50;;;;;;;17.10;89.82;100663.47;6093892;29;20051;-92
2022/06/21 09:33:24;;;;;;;8.13;1.85;;;;;;;17.15;88.57;100674.25;6090147;29;20059;-94
2022/06/21 09:36:44;;;;;;;8.02;2.00;;;;;;;17.12;85.19;100666.75;6087594;29;20111;-93
2022/06/21 09:39:54;;;;;;;3.55;1.40;;;;;;;17.18;85.95;100669.50;6113351;29;20063;-94
2022/06/21 09:43:28;;;;;;;5.57;1.92;;;;;;;17.29;84.27;100670.19;6110978;29;20043;-93
2022/06/21 09:47:07;;;;;;;6.95;1.65;;;;;;;17.43;83.42;100669.56;6116286;29;20405;-94
2022/06/21 09:50:15;;;;;;;5.05;1.63;;;;;;;17.65;80.48;100658.44;6115524;29;20067;-94
2022/06/21 09:53:38;;;;;;;11.63;1.75;;;;;;;17.63;78.71;100664.81;6111936;29;20150;-94
2022/06/21 09:56:49;;;;;;;6.70;1.63;;;;;;;17.68;77.98;100649.44;6105829;29;20047;-94
2022/06/21 10:00:04;;;;;;;;;;;;;;;17.70;77.46;100644.03;6123938;29;20051;-94
2022/06/21 10:03:37;;;;;;;3.92;1.35;;;;;;;17.72;78.46;100645.50;6101930;29;20013;-94
2022/06/21 10:06:58;;;;;;;8.68;1.73;;;;;;;17.83;81.04;100639.94;6101806;29;20047;-95
2022/06/21 10:10:37;;;;;;;2.95;1.55;;;;;;;17.89;80.43;100641.13;6112812;29;20575;-95
2022/06/21 10:14:03;;;;;;;6.25;1.45;;;;;;;17.94;78.41;100630.13;6110627;29;20487;-94
2022/06/21 10:17:33;;;;;;;4.15;1.50;;;;;;;18.19;77.72;100630.91;6103905;29;20459;-94
2022/06/21 10:21:11;;;;;;;4.57;1.50;;;;;;;18.28;79.29;100625.47;6130160;28;20063;-94
2022/06/21 10:24:32;;;;;;;4.65;1.40;;;;;;;18.40;77.32;100618.03;6106225;29;20046;-94
2022/06/21 10:28:02;;;;;;;5.47;2.20;;;;;;;18.34;74.05;100613.47;6118253;29;20071;-94
2022/06/21 10:31:35;;;;;;;3.97;1.67;;;;;;;18.30;76.38;100610.38;6120453;29;20040;-94
2022/06/21 10:35:17;;;;;;;5.53;1.35;;;;;;;18.29;75.33;100605.31;6109106;29;20191;-94
2022/06/21 10:38:52;;;;;;;3.38;1.67;;;;;;;18.36;76.35;100601.03;6091802;29;20071;-94
2022/06/21 10:42:46;;;;;;;5.40;1.85;;;;;;;18.52;77.53;100597.50;6094670;29;20066;-94
2022/06/21 10:45:59;;;;;;;3.33;1.23;;;;;;;18.75;75.60;100600.16;6085060;29;20143;-94
2022/06/21 10:49:19;;;;;;;6.15;1.80;;;;;;;18.80;75.55;100597.88;6090758;29;20056;-94
2022/06/21 10:52:56;;;;;;;4.75;1.77;;;;;;;18.96;74.20;100594.34;6088726;29;20748;-94
2022/06/21 11:04:03;;;;;;;9.57;2.00;;;;;;;18.93;66.30;100592.88;6101887;29;20055;-93
2022/06/21 11:07:13;;;;;;;4.38;1.70;;;;;;;19.09;73.16;100605.06;6128174;28;20134;-95
2022/06/21 11:11:13;;;;;;;5.57;1.70;;;;;;;19.25;66.85;100590.19;6124738;29;20066;-94
2022/06/21 11:14:34;;;;;;;2.58;1.40;;;;;;;19.23;66.05;100584.28;6092637;29;20055;-93
2022/06/21 11:18:09;;;;;;;4.35;1.65;;;;;;;19.37;65.64;100578.28;6084740;29;20067;-95
2022/06/21 11:21:52;;;;;;;2.35;1.50;;;;;;;19.46;65.56;100573.78;5978659;29;20850;-95
2022/06/21 11:25:25;;;;;;;3.53;1.40;;;;;;;19.55;63.05;100580.56;5989023;29;20065;-94
2022/06/21 11:28:58;;;;;;;5.55;1.92;;;;;;;19.65;63.49;100568.03;5990773;29;20056;-96
2022/06/21 11:32:55;;;;;;;;;;;;;;;;;;;;;
2022/06/21 11:37:11;;;;;;;5.45;1.45;;;;;;;20.33;64.12;100560.06;6107396;29;20119;-96
2022/06/21 11:45:55;;;;;;;4.13;1.55;;;;;;;21.14;65.72;100539.66;6088994;28;20067;-96
2022/06/21 11:49:49;;;;;;;;;;;;;;;;;;;;;
2022/06/21 11:53:46;;;;;;;;;;;;;;;;;;;;;
2022/06/21 12:02:40;;;;;;;4.82;1.40;;;;;;;22.02;56.23;100541.84;5991011;29;20134;-96
2022/06/21 12:06:04;;;;;;;2.85;1.30;;;;;;;22.34;54.30;100532.47;5979869;29;20054;-96
2022/06/21 12:09:54;;;;;;;3.33;1.25;;;;;;;22.67;55.74;100529.91;5973767;29;20616;-96
2022/06/21 12:13:41;;;;;;;1.65;1.08;;;;;;;22.94;49.77;100525.47;5975360;29;20070;-96
2022/06/21 12:17:20;;;;;;;4.28;1.67;;;;;;;23.14;47.89;100529.97;5932279;29;20548;-96
2022/06/21 12:20:40;;;;;;;5.93;1.25;;;;;;;23.21;50.65;100522.88;5950671;29;20091;-96
2022/06/21 12:24:12;;;;;;;2.58;1.30;;;;;;;23.48;50.25;100506.94;5944316;29;20092;-96
2022/06/21 12:27:15;;;;;;;2.67;1.17;;;;;;;23.75;48.30;100510.38;5972548;29;20098;-96
2022/06/21 12:30:24;;;;;;;3.80;1.33;;;;;;;23.92;46.69;100511.53;6006053;29;20520;-95
2022/06/21 12:33:43;;;;;;;;;;;;;;;;;;;;;
2022/06/21 12:37:06;;;;;;;4.07;1.40;;;;;;;24.13;48.41;100502.50;6055031;29;20060;-96
2022/06/21 12:40:31;;;;;;;4.82;1.42;;;;;;;24.29;46.10;100502.00;6104744;29;20052;-96
2022/06/21 12:44:04;;;;;;;3.90;1.30;;;;;;;24.27;45.37;100503.22;6124680;28;20095;-93
2022/06/21 12:47:32;;;;;;;6.28;1.92;;;;;;;24.24;44.72;100503.66;6107656;29;20078;-94
2022/06/21 12:50:34;;;;;;;1.75;1.23;;;;;;;24.54;45.75;100497.81;6110789;29;21250;-95
2022/06/21 12:53:55;;;;;;;3.58;1.67;;;;;;;24.95;46.85;100499.16;6110817;29;20054;-95
2022/06/21 12:57:32;;;;;;;2.17;0.90;;;;;;;25.11;45.83;100502.03;6108731;29;20048;-94
2022/06/21 13:00:51;;;;;;;3.72;1.38;;;;;;;24.88;45.25;100501.84;6122516;28;20079;-95
2022/06/21 13:04:19;;;;;;;3.67;1.25;;;;;;;24.68;44.98;100499.34;6105384;29;20059;-94
2022/06/21 13:07:59;;;;;;;3.15;1.30;;;;;;;24.59;43.40;100497.97;6095164;29;20494;-95
2022/06/21 13:11:39;;;;;;;4.30;1.42;;;;;;;24.52;45.56;100487.47;6085834;29;20139;-94
2022/06/21 13:15:20;;;;;;;4.45;1.30;;;;;;;24.57;45.05;100471.75;6088819;29;20095;-95
2022/06/21 13:18:41;;;;;;;5.63;1.30;;;;;;;24.59;45.09;100472.31;6107860;29;20055;-96
2022/06/21 13:22:09;;;;;;;2.97;1.05;;;;;;;24.65;45.34;100462.72;6093493;29;20505;-95
2022/06/21 13:25:43;;;;;;;3.40;1.13;;;;;;;24.66;45.93;100462.50;6104715;29;20612;-95
2022/06/21 13:28:51;;;;;;;2.05;1.10;;;;;;;24.68;43.58;100464.94;6090821;29;20082;-94
2022/06/21 13:32:15;;;;;;;3.40;1.05;;;;;;;24.74;45.34;100463.25;6083947;29;20060;-95
2022/06/21 13:35:49;;;;;;;3.08;1.13;;;;;;;24.78;47.21;100464.47;6088883;29;20059;-95
2022/06/21 13:39:13;;;;;;;3.38;1.48;;;;;;;24.86;46.12;100462.34;6087527;29;20223;-96
2022/06/21 13:42:42;;;;;;;3.78;1.35;;;;;;;25.04;45.34;100458.09;6093949;29;20043;-96
2022/06/21 13:45:58;;;;;;;2.90;1.10;;;;;;;25.26;44.16;100467.28;6112274;29;20063;-95
2022/06/21 13:49:13;;;;;;;3.08;1.17;;;;;;;25.56;45.06;100454.13;6111062;29;20197;-95
2022/06/21 13:52:38;;;;;;;2.25;0.90;;;;;;;25.99;41.64;100447.09;6104110;29;20161;-96
2022/06/21 13:56:03;;;;;;;3.67;1.27;;;;;;;26.35;42.30;100440.84;6110983;29;20055;-96
2022/06/21 13:59:17;;;;;;;2.20;1.10;;;;;;;26.32;40.43;100438.66;6112546;29;20044;-96
2022/06/21 14:02:29;;;;;;;2.40;0.98;;;;;;;26.29;43.00;100428.50;6119271;29;20056;-96
2022/06/21 14:05:43;;;;;;;4.88;1.35;;;;;;;26.46;41.20;100435.78;6114851;28;20067;-96
2022/06/21 14:08:53;;;;;;;2.30;1.00;;;;;;;26.79;35.61;100437.94;6113595;29;20147;-96
2022/06/21 14:12:17;;;;;;;3.58;1.00;;;;;;;27.11;37.89;100442.91;6116428;29;20576;-96
2022/06/21 14:15:30;;;;;;;3.60;1.08;;;;;;;27.48;34.44;100435.47;6112604;29;20391;-96
2022/06/21 14:19:04;;;;;;;3.30;1.30;;;;;;;27.35;40.89;100427.75;6111326;28;20413;-96
2022/06/21 14:22:23;;;;;;;3.90;1.13;;;;;;;27.16;40.37;100441.16;6109951;29;20557;-96
2022/06/21 14:25:50;;;;;;;3.42;1.42;;;;;;;26.63;39.18;100439.41;6110940;29;20221;-96
2022/06/21 14:29:11;;;;;;;3.05;1.20;;;;;;;26.03;39.93;100436.84;6123970;29;20490;-96
2022/06/21 14:32:23;;;;;;;3.03;1.10;;;;;;;25.69;44.11;100439.06;6110917;29;20055;-95
2022/06/21 14:35:56;;;;;;;2.15;0.90;;;;;;;25.50;44.49;100438.31;6126848;29;20063;-96
2022/06/21 14:39:05;;;;;;;3.55;1.00;;;;;;;25.40;45.18;100444.13;6110434;29;20043;-96
2022/06/21 14:42:10;;;;;;;1.85;1.20;;;;;;;25.37;42.03;100443.75;6111023;29;20140;-96
2022/06/21 14:45:44;;;;;;;1.58;0.95;;;;;;;25.46;42.49;100434.47;6126241;29;20039;-96
2022/06/21 14:49:11;;;;;;;5.95;1.35;;;;;;;25.59;38.67;100436.97;6106475;29;20713;-96
2022/06/21 14:52:29;;;;;;;4.18;2.10;;;;;;;25.44;39.76;100428.56;6108712;29;20071;-96
2022/06/21 14:56:02;;;;;;;3.75;1.00;;;;;;;25.40;42.35;100416.81;6125661;28;20040;-96
2022/06/21 14:59:30;;;;;;;;;;;;;;;25.40;41.82;100409.66;6114578;29;20051;-96
2022/06/21 15:03:06;;;;;;;4.93;1.23;;;;;;;25.39;41.73;100410.72;6106873;29;19927;-96
2022/06/21 15:06:31;;;;;;;18.33;4.43;;;;;;;25.28;39.71;100403.50;6112592;29;20043;-96
2022/06/21 15:09:43;;;;;;;6.28;1.38;;;;;;;25.19;42.93;100407.44;6116190;29;20570;-96
2022/06/21 15:12:55;;;;;;;2.85;1.23;;;;;;;25.13;43.38;100415.22;6116074;29;20105;-96
2022/06/21 15:20:25;;;;;;;2.40;1.10;;;;;;;25.03;42.02;100406.97;6140999;28;20047;-96
2022/06/21 15:24:13;;;;;;;2.45;1.15;;;;;;;24.98;41.33;100396.22;6144674;29;20146;-96
2022/06/21 15:27:40;;;;;;;3.10;1.33;;;;;;;24.98;39.76;100406.81;6118753;29;20367;-96
2022/06/21 15:50:12;;;;;;;4.15;1.42;;;;;;;27.88;35.93;100371.63;7041311;23;20659;-96
2022/06/21 15:58:53;;;;;;;1.80;0.82;;;;;;;28.55;33.55;100388.72;6496613;23;19969;-96
2022/06/21 16:07:31;;;;;;;1.75;1.10;;;;;;;29.98;31.35;100373.63;6584327;23;20054;-96
2022/06/21 16:26:56;;;;;;;2.78;0.90;;;;;;;31.83;30.36;100346.78;6483508;23;20082;-96
2022/06/21 16:39:48;;;;;;;3.00;1.40;;;;;;;31.56;30.48;100347.00;6200217;23;20059;-96
2022/06/21 17:25:37;;;;;;;2.20;1.10;;;;;;;30.59;29.22;100315.34;7301702;23;20921;31
2022/06/21 18:01:47;;;;;;;2.53;1.00;;;;;;;27.53;32.61;100288.50;7128449;23;19918;-96